Time;durP1;ratioP1;P1;durP2;ratioP2;P2;SDS_P1;SDS_P2;PMS_P1;PMS_P2;Temp;Humidity;BMP_temperature;BMP_pressure;BME280_temperature;BME280_humidity;BME280_pressure;Samples;Min_cycle;Max_cycle;Signal;HPM_P1;HPM_P2
2020/12/02 00:03:30;;;;;;;17.37;13.03;;;;;;;-0.78;90.95;101154.20;1748889;82;21865;-79
2020/12/02 00:06:37;;;;;;;19.50;13.70;;;;;;;-0.81;90.83;101148.98;1737338;82;21320;-79
2020/12/02 00:09:43;;;;;;;16.35;12.63;;;;;;;-0.81;90.86;101144.95;1737416;82;21367;-79
2020/12/02 00:12:48;;;;;;;60.90;54.30;;;;;;;-0.81;90.88;101147.64;1737582;82;21350;-79
2020/12/02 00:15:55;;;;;;;34.78;30.77;;;;;;;-0.82;90.99;101151.28;1737467;82;21299;-79
2020/12/02 00:19:03;;;;;;;38.90;33.73;;;;;;;-0.77;91.09;101147.88;1719748;83;21324;-79
2020/12/02 00:22:19;;;;;;;25.82;19.52;;;;;;;-0.73;91.04;101153.09;1684428;85;21292;-79
2020/12/02 00:25:25;;;;;;;32.30;28.50;;;;;;;-0.74;91.00;101150.02;1737544;82;21810;-80
2020/12/02 00:28:31;;;;;;;15.72;12.58;;;;;;;-0.73;90.99;101141.00;1737519;82;21288;-80
2020/12/02 00:31:29;;;;;;;11.80;8.15;;;;;;;-0.75;90.96;101144.23;1736672;82;21177;-80
2020/12/02 00:34:35;;;;;;;46.33;40.45;;;;;;;-0.80;90.93;101139.10;1737551;82;21819;-80
2020/12/02 00:37:39;;;;;;;16.93;13.13;;;;;;;-0.86;90.98;101132.73;1736822;82;22513;-80
2020/12/02 00:40:47;;;;;;;26.15;20.10;;;;;;;-0.91;91.03;101131.64;1736416;82;21780;-80
2020/12/02 00:43:53;;;;;;;19.62;13.62;;;;;;;-0.92;91.19;101134.42;1719909;83;21761;-80
2020/12/02 00:46:58;;;;;;;51.40;45.28;;;;;;;-0.92;91.35;101137.97;1685615;85;21925;-80
2020/12/02 00:50:04;;;;;;;19.35;15.95;;;;;;;-0.93;91.43;101138.92;1737472;82;21189;-80
2020/12/02 00:53:16;;;;;;;40.38;31.85;;;;;;;-0.98;91.46;101139.65;1737386;82;21902;-80
2020/12/02 00:56:21;;;;;;;20.33;16.73;;;;;;;-1.02;91.49;101134.53;1720434;83;21340;-80
2020/12/02 00:59:33;;;;;;;23.67;18.60;;;;;;;-1.07;91.49;101135.63;1685636;85;21323;-80
2020/12/02 01:02:53;;;;;;;22.27;15.55;;;;;;;-1.08;91.53;101133.91;1737359;82;21331;-80
2020/12/02 01:05:59;;;;;;;33.53;28.52;;;;;;;-1.10;91.66;101124.18;1704587;83;21383;-80
2020/12/02 01:09:05;;;;;;;18.50;14.98;;;;;;;-1.10;91.77;101125.52;1691419;83;21354;-80
2020/12/02 01:12:10;;;;;;;28.02;21.35;;;;;;;-1.05;91.88;101130.17;1751935;82;21870;-80
2020/12/02 01:15:16;;;;;;;49.75;43.52;;;;;;;-1.02;91.80;101125.99;1752862;82;21711;-80
2020/12/02 01:18:31;;;;;;;32.13;27.27;;;;;;;-1.02;91.63;101131.36;1751537;82;21299;-80
2020/12/02 01:21:51;;;;;;;20.55;14.15;;;;;;;-1.01;91.53;101135.77;1752443;82;21401;-80
2020/12/02 01:25:30;;;;;;;34.98;31.17;;;;;;;-1.02;91.37;101128.67;1751677;82;21220;-80
2020/12/02 01:28:38;;;;;;;94.28;84.13;;;;;;;-1.03;91.28;101125.61;1753019;82;21383;-80
2020/12/02 01:31:42;;;;;;;37.95;30.97;;;;;;;-1.03;91.22;101126.95;1752505;82;21767;-80
2020/12/02 01:34:48;;;;;;;55.90;44.05;;;;;;;-1.03;91.27;101126.95;1752879;82;21254;-80
2020/12/02 01:37:53;;;;;;;74.60;65.30;;;;;;;-1.01;91.29;101121.48;1751965;82;21334;-80
2020/12/02 01:41:00;;;;;;;40.48;34.67;;;;;;;-1.00;91.32;101125.42;1752745;82;21236;-80
2020/12/02 01:44:05;;;;;;;59.40;52.40;;;;;;;-1.01;91.39;101123.69;1726976;83;21280;-80
2020/12/02 01:47:25;;;;;;;67.03;59.75;;;;;;;-0.97;91.46;101113.18;1690877;85;21243;-80
2020/12/02 01:50:46;;;;;;;121.37;108.03;;;;;;;-0.95;91.42;101115.77;1753127;82;21306;-80
2020/12/02 01:53:56;;;;;;;30.25;23.87;;;;;;;-0.93;91.40;101125.50;1748434;81;21302;-79
2020/12/02 01:57:29;;;;;;;34.27;27.32;;;;;;;-0.93;91.36;101126.84;1752991;82;21227;-79
2020/12/02 02:00:38;;;;;;;28.75;23.75;;;;;;;-0.87;91.39;101121.60;1752265;82;21224;-80
2020/12/02 02:03:45;;;;;;;33.38;23.73;;;;;;;-0.87;91.23;101125.16;1751382;82;21299;-80
2020/12/02 02:07:15;;;;;;;28.42;22.60;;;;;;;-0.91;91.11;101120.03;1742369;82;21342;-80
2020/12/02 02:10:20;;;;;;;52.20;44.53;;;;;;;-0.95;91.03;101119.32;1715475;83;21193;-80
2020/12/02 02:14:22;;;;;;;18.10;11.78;;;;;;;-0.94;90.98;101128.24;1681359;85;21343;-80
2020/12/02 02:17:27;;;;;;;39.78;33.80;;;;;;;-0.96;90.81;101131.50;1742188;82;21201;-80
2020/12/02 02:20:40;;;;;;;44.15;36.23;;;;;;;-0.93;90.65;101128.66;1741406;82;21204;-80
2020/12/02 02:23:45;;;;;;;40.65;34.83;;;;;;;-0.93;90.48;101129.52;1740870;82;21334;-80
2020/12/02 02:26:54;;;;;;;41.60;27.15;;;;;;;-0.93;90.21;101132.21;1701529;83;21304;-80
2020/12/02 02:29:59;;;;;;;25.15;19.95;;;;;;;-0.93;90.09;101122.81;1672522;85;21359;-80
2020/12/02 02:33:04;;;;;;;43.90;34.53;;;;;;;-0.90;89.95;101132.50;1716514;83;21212;-80
2020/12/02 02:36:11;;;;;;;19.98;13.22;;;;;;;-0.91;89.87;101136.14;1721416;83;21277;-80
2020/12/02 02:39:18;;;;;;;73.10;63.78;;;;;;;-0.91;89.78;101126.75;1722581;83;21238;-80
2020/12/02 02:42:45;;;;;;;31.93;24.45;;;;;;;-0.88;89.79;101131.96;1722383;83;21347;-80
2020/12/02 02:45:49;;;;;;;35.43;29.00;;;;;;;-0.86;89.76;101137.63;1742476;82;21292;-80
2020/12/02 02:48:55;;;;;;;24.25;14.40;;;;;;;-0.83;89.77;101137.47;1742546;82;21235;-80
2020/12/02 02:52:02;;;;;;;36.70;28.02;;;;;;;-0.80;89.83;101137.31;1741003;82;21787;-80
2020/12/02 02:55:08;;;;;;;37.25;27.62;;;;;;;-0.75;89.93;101140.20;1717175;83;21356;-80
2020/12/02 02:58:13;;;;;;;22.70;14.63;;;;;;;-0.77;89.78;101138.47;1682917;85;21318;-80
2020/12/02 03:01:19;;;;;;;22.40;14.68;;;;;;;-0.83;89.61;101138.81;1742540;82;21291;-80
2020/12/02 03:04:25;;;;;;;22.62;15.60;;;;;;;-0.82;89.62;101132.96;1742402;82;21839;-80
2020/12/02 03:07:31;;;;;;;34.55;25.17;;;;;;;-0.82;89.56;101139.20;1734531;82;21860;-80
2020/12/02 03:10:41;;;;;;;24.82;17.73;;;;;;;-0.81;89.56;101141.41;1731731;83;21339;-80
2020/12/02 03:13:53;;;;;;;35.95;28.73;;;;;;;-0.81;89.50;101142.27;1730807;83;21873;-80
2020/12/02 03:17:02;;;;;;;24.92;16.07;;;;;;;-0.81;89.42;101140.06;1731656;83;21292;-80
2020/12/02 03:20:19;;;;;;;39.35;29.40;;;;;;;-0.86;89.41;101147.50;1731840;83;21296;-80
2020/12/02 03:23:25;;;;;;;31.07;21.23;;;;;;;-0.86;89.55;101150.19;1730813;83;21399;-80
2020/12/02 03:26:30;;;;;;;19.20;11.43;;;;;;;-0.90;89.55;101146.80;1713274;83;21293;-80
2020/12/02 03:29:35;;;;;;;33.98;25.35;;;;;;;-0.89;89.70;101151.24;1677334;85;21366;-80
2020/12/02 03:32:40;;;;;;;21.80;15.23;;;;;;;-0.86;89.74;101149.71;1731616;83;21284;-80
2020/12/02 03:35:47;;;;;;;39.53;30.43;;;;;;;-0.85;89.70;101152.81;1731750;83;21775;-80
2020/12/02 03:38:52;;;;;;;29.30;17.62;;;;;;;-0.81;89.71;101153.02;1730184;83;21871;-80
2020/12/02 03:41:58;;;;;;;29.55;17.77;;;;;;;-0.83;89.52;101150.91;1730918;83;21269;-80
2020/12/02 03:45:03;;;;;;;20.80;13.50;;;;;;;-0.85;89.38;101154.16;1731651;83;21236;-80
2020/12/02 03:48:10;;;;;;;76.55;58.13;;;;;;;-0.88;89.24;101156.13;1731799;83;21299;-80
2020/12/02 03:51:15;;;;;;;30.05;17.42;;;;;;;-0.88;89.15;101163.72;1731743;83;21296;-80
2020/12/02 03:54:21;;;;;;;52.73;40.40;;;;;;;-0.86;89.07;101168.52;1730277;83;21343;-80
2020/12/02 03:57:27;;;;;;;33.35;21.70;;;;;;;-0.86;88.81;101172.55;1731733;83;21855;-80
2020/12/02 04:00:33;;;;;;;38.83;28.55;;;;;;;-0.85;88.53;101174.30;1731757;83;21283;-80
2020/12/02 04:03:38;;;;;;;48.02;34.58;;;;;;;-0.90;88.32;101165.59;1714213;83;21344;-80
2020/12/02 04:06:45;;;;;;;87.90;55.70;;;;;;;-0.88;88.24;101170.43;1677885;85;21323;-80
2020/12/02 04:09:51;;;;;;;254.30;110.78;;;;;;;-0.86;88.11;101172.55;1752860;82;21303;-80
2020/12/02 04:12:50;;;;;;;396.75;124.33;;;;;;;-0.85;87.91;101170.72;1752646;82;21350;-80
2020/12/02 04:15:43;;;;;;;50.12;24.43;;;;;;;-0.92;87.73;101169.33;1752882;82;21342;-80
2020/12/02 04:18:49;;;;;;;29.55;16.90;;;;;;;-0.90;87.81;101177.69;1753018;82;21825;-80
2020/12/02 04:21:55;;;;;;;70.92;54.03;;;;;;;-0.90;87.80;101179.02;1752996;82;21314;-80
2020/12/02 04:25:03;;;;;;;43.30;29.40;;;;;;;-0.85;87.77;101181.02;1751716;82;21326;-80
2020/12/02 04:28:10;;;;;;;33.73;21.55;;;;;;;-0.92;87.62;101184.97;1751450;82;21325;-80
2020/12/02 04:31:16;;;;;;;49.13;34.85;;;;;;;-0.96;87.51;101183.39;1751288;82;21826;-80
2020/12/02 04:34:22;;;;;;;41.68;28.45;;;;;;;-1.00;87.42;101176.44;1751138;82;21270;-80
2020/12/02 04:37:28;;;;;;;32.48;19.77;;;;;;;-1.02;87.37;101180.18;1752563;82;21338;-80
2020/12/02 04:40:39;;;;;;;32.90;21.75;;;;;;;-1.04;87.40;101175.73;1753175;82;21823;-80
2020/12/02 04:43:46;;;;;;;42.13;24.65;;;;;;;-1.09;87.24;101170.22;1745623;82;21556;-80
2020/12/02 04:46:51;;;;;;;46.18;33.02;;;;;;;-1.14;87.05;101174.96;1751083;82;21334;-80
2020/12/02 04:49:49;;;;;;;32.00;20.10;;;;;;;-1.22;86.99;101173.14;1749594;82;21273;-80
2020/12/02 04:53:18;;;;;;;50.15;34.75;;;;;;;-1.29;87.21;101177.98;1748286;82;21323;-80
2020/12/02 04:56:27;;;;;;;;;;;;;;;-1.27;87.44;101172.08;1724518;83;21343;-80
2020/12/02 04:59:44;;;;;;;44.75;30.68;;;;;;;-1.23;87.56;101177.65;1724036;82;20315;-80
2020/12/02 05:02:50;;;;;;;31.15;17.37;;;;;;;-1.16;87.68;101182.24;1753001;82;21196;-80
2020/12/02 05:05:59;;;;;;;60.38;44.67;;;;;;;-1.19;87.81;101185.08;1751464;82;21200;-80
2020/12/02 05:09:30;;;;;;;34.75;22.52;;;;;;;-1.26;87.79;101189.91;1744422;82;21375;-80
2020/12/02 05:12:47;;;;;;;32.28;24.35;;;;;;;-1.32;87.88;101197.81;1683571;84;21323;-80
2020/12/02 05:15:53;;;;;;;53.58;38.25;;;;;;;-1.30;88.08;101197.24;1707175;83;21815;-80
2020/12/02 05:19:24;;;;;;;43.08;29.12;;;;;;;-1.29;88.30;101200.31;1703482;84;21307;-80
2020/12/02 05:22:29;;;;;;;36.40;22.00;;;;;;;-1.28;88.47;101197.16;1703139;84;21728;-80
2020/12/02 05:25:41;;;;;;;37.60;25.50;;;;;;;-1.30;88.67;101207.98;1691145;84;21335;-80
2020/12/02 05:28:50;;;;;;;53.08;40.03;;;;;;;-1.30;88.84;101207.98;1727597;83;21308;-80
2020/12/02 05:31:55;;;;;;;40.40;25.80;;;;;;;-1.29;88.87;101218.23;1730587;83;21312;-80
2020/12/02 05:35:01;;;;;;;95.60;78.65;;;;;;;-1.29;88.79;101220.45;1726353;83;21728;-80
2020/12/02 05:38:07;;;;;;;43.58;27.87;;;;;;;-1.32;88.57;101223.31;1713807;83;21306;-80
2020/12/02 05:41:18;;;;;;;81.60;64.60;;;;;;;-1.33;88.59;101232.77;1702006;82;21218;-80
2020/12/02 05:44:40;;;;;;;50.63;35.00;;;;;;;-1.33;88.78;101239.47;1679379;85;21295;-80
2020/12/02 05:47:46;;;;;;;43.70;27.93;;;;;;;-1.33;88.95;101232.28;1686578;85;21289;-80
2020/12/02 05:50:52;;;;;;;54.80;40.23;;;;;;;-1.37;89.19;101240.09;1682252;85;21924;-80
2020/12/02 05:54:02;;;;;;;45.98;28.42;;;;;;;-1.41;89.59;101247.03;1713460;83;21725;-80
2020/12/02 05:57:10;;;;;;;43.08;25.10;;;;;;;-1.42;90.01;101246.17;1726277;83;21525;-81
2020/12/02 06:00:16;;;;;;;51.23;31.35;;;;;;;-1.39;90.37;101248.71;1722822;81;21303;-81
2020/12/02 06:03:24;;;;;;;44.35;26.55;;;;;;;-1.33;90.50;101249.73;1727372;81;21665;-81
2020/12/02 06:06:33;;;;;;;47.73;29.87;;;;;;;-1.33;90.49;101256.44;1701497;83;21189;-81
2020/12/02 06:09:51;;;;;;;96.30;73.45;;;;;;;-1.31;90.44;101267.98;1729336;82;21331;-81
2020/12/02 06:12:57;;;;;;;56.80;41.18;;;;;;;-1.34;90.10;101258.73;1731083;81;21303;-81
2020/12/02 06:16:03;;;;;;;60.55;35.73;;;;;;;-1.39;89.79;101256.77;1708968;81;21328;-80
2020/12/02 06:19:20;;;;;;;43.60;26.02;;;;;;;-1.44;89.90;101258.81;1704722;81;21212;-81
2020/12/02 06:22:58;;;;;;;56.25;35.98;;;;;;;-1.43;90.01;101256.52;1712866;82;21332;-80
2020/12/02 06:26:07;;;;;;;44.13;19.65;;;;;;;-1.40;90.02;101254.16;1700647;82;21374;-80
2020/12/02 06:29:14;;;;;;;36.42;19.57;;;;;;;-1.31;90.07;101246.52;1700959;82;21330;-81
2020/12/02 06:32:31;;;;;;;38.13;19.55;;;;;;;-1.19;89.84;101239.64;1715239;82;21322;-81
2020/12/02 06:35:39;;;;;;;38.98;19.85;;;;;;;-1.17;89.43;101247.16;1708441;81;21377;-81
2020/12/02 06:38:44;;;;;;;93.87;71.47;;;;;;;-1.12;89.18;101256.31;1731847;81;21386;-82
2020/12/02 06:41:51;;;;;;;54.23;31.33;;;;;;;-1.11;89.00;101262.08;1738094;81;22036;-82
2020/12/02 06:45:26;;;;;;;72.10;55.38;;;;;;;-1.16;88.63;101269.50;1730285;81;21328;-80
2020/12/02 06:48:40;;;;;;;99.42;71.55;;;;;;;-1.22;88.41;101270.69;1736768;81;21311;-81
2020/12/02 06:52:07;;;;;;;101.50;77.20;;;;;;;-1.28;88.27;101269.63;1682616;82;21343;-80
2020/12/02 06:55:33;;;;;;;95.67;71.50;;;;;;;-1.31;88.27;101270.67;1718719;81;21194;-80
2020/12/02 06:58:39;;;;;;;40.20;23.62;;;;;;;-1.26;88.36;101258.84;1737047;81;21648;-81
2020/12/02 07:01:50;;;;;;;42.03;21.93;;;;;;;-1.19;88.42;101261.59;1735707;81;21402;-80
2020/12/02 07:05:04;;;;;;;48.68;22.13;;;;;;;-1.09;88.46;101264.20;1737016;81;21683;-80
2020/12/02 07:08:28;;;;;;;43.35;20.20;;;;;;;-1.02;88.32;101268.32;1739747;81;21700;-80
2020/12/02 07:11:33;;;;;;;37.08;19.75;;;;;;;-1.02;88.21;101267.45;1736727;81;21310;-80
2020/12/02 07:14:46;;;;;;;39.40;21.73;;;;;;;-1.01;88.13;101279.92;1730450;81;22765;-80
2020/12/02 07:17:51;;;;;;;69.97;45.43;;;;;;;-0.99;87.92;101278.02;1740335;81;21995;-81
2020/12/02 07:21:14;;;;;;;112.17;82.30;;;;;;;-1.02;87.40;101280.41;1735461;81;21323;-81
2020/12/02 07:24:28;;;;;;;72.10;50.03;;;;;;;-1.08;87.06;101290.13;1719008;80;21578;-80
2020/12/02 07:27:32;;;;;;;51.27;35.27;;;;;;;-1.08;86.96;101292.34;1732379;81;21346;-80
2020/12/02 07:30:45;;;;;;;64.87;42.17;;;;;;;-1.01;86.93;101298.73;1735668;81;21406;-80
2020/12/02 07:34:24;;;;;;;42.43;26.93;;;;;;;-0.97;86.59;101303.86;1721865;81;21216;-80
2020/12/02 07:37:29;;;;;;;47.80;28.07;;;;;;;-0.95;86.37;101301.95;1730729;81;21236;-81
2020/12/02 07:40:43;;;;;;;59.20;44.98;;;;;;;-0.92;86.18;101309.00;1732787;81;21322;-80
2020/12/02 07:43:54;;;;;;;32.90;18.73;;;;;;;-0.96;85.72;101307.41;1733860;81;21862;-81
2020/12/02 07:47:02;;;;;;;44.53;29.72;;;;;;;-1.00;85.73;101301.32;1739596;81;21224;-81
2020/12/02 07:50:39;;;;;;;63.08;43.23;;;;;;;-0.93;85.81;101305.92;1734214;81;21312;-81
2020/12/02 07:54:09;;;;;;;64.58;44.45;;;;;;;-0.91;85.70;101301.33;1734629;81;21300;-80
2020/12/02 07:57:19;;;;;;;57.35;41.63;;;;;;;-0.89;85.37;101305.69;1703530;81;21412;-80
2020/12/02 08:00:48;;;;;;;40.92;20.68;;;;;;;-0.88;85.32;101307.42;1738678;81;21161;-80
2020/12/02 08:03:54;;;;;;;45.67;26.17;;;;;;;-0.86;85.30;101308.20;1729661;81;21205;-81
2020/12/02 08:07:11;;;;;;;70.45;45.40;;;;;;;-0.78;85.35;101311.84;1736383;81;21311;-80
2020/12/02 08:10:16;;;;;;;80.55;56.53;;;;;;;-0.76;85.12;101316.64;1738968;81;21316;-80
2020/12/02 08:13:25;;;;;;;62.15;38.70;;;;;;;-0.74;85.03;101313.42;1736750;80;22004;-81
2020/12/02 08:16:51;;;;;;;47.78;30.43;;;;;;;-0.69;85.05;101310.02;1734874;81;21628;-80
2020/12/02 08:20:03;;;;;;;45.88;25.82;;;;;;;-0.60;84.90;101305.52;1734437;81;21303;-81
2020/12/02 08:23:32;;;;;;;57.38;33.25;;;;;;;-0.55;84.66;101303.92;1733298;81;21433;-81
2020/12/02 08:26:39;;;;;;;41.92;21.02;;;;;;;-0.56;84.43;101304.41;1734729;81;21315;-80
2020/12/02 08:29:48;;;;;;;71.45;48.98;;;;;;;-0.56;84.40;101294.13;1718478;81;21244;-81
2020/12/02 08:33:15;;;;;;;49.93;30.15;;;;;;;-0.52;84.19;101295.23;1738607;81;22387;-82
2020/12/02 08:36:22;;;;;;;57.80;38.42;;;;;;;-0.57;83.86;101286.99;1726362;81;21310;-82
2020/12/02 08:39:38;;;;;;;69.40;43.78;;;;;;;-0.64;83.96;101291.84;1730004;81;21690;-81
2020/12/02 08:42:43;;;;;;;56.95;32.60;;;;;;;-0.68;84.30;101278.64;1737895;81;21193;-82
2020/12/02 08:46:01;;;;;;;75.30;53.58;;;;;;;-0.65;84.47;101281.18;1737282;81;21747;-82
2020/12/02 08:49:07;;;;;;;61.18;41.92;;;;;;;-0.59;84.59;101276.34;1739979;81;21272;-82
2020/12/02 08:52:13;;;;;;;36.15;19.62;;;;;;;-0.56;84.41;101273.98;1734565;81;21342;-81
2020/12/02 08:55:19;;;;;;;46.08;26.68;;;;;;;-0.58;84.49;101263.77;1709135;81;22287;-81
2020/12/02 08:58:25;;;;;;;63.28;44.95;;;;;;;-0.52;84.72;101264.77;1736997;81;21173;-80
2020/12/02 09:01:31;;;;;;;56.48;35.75;;;;;;;-0.50;84.56;101264.23;1738694;81;21502;-80
2020/12/02 09:04:37;;;;;;;53.45;31.82;;;;;;;-0.50;84.21;101257.99;1738172;81;21204;-83
2020/12/02 09:07:44;;;;;;;55.03;33.25;;;;;;;-0.57;84.24;101251.58;1734319;81;21429;-82
2020/12/02 09:10:53;;;;;;;36.77;20.27;;;;;;;-0.56;84.43;101249.79;1737823;81;21306;-80
2020/12/02 09:14:07;;;;;;;49.73;27.30;;;;;;;-0.53;84.65;101245.57;1722845;81;21338;-80
2020/12/02 09:17:12;;;;;;;57.88;32.17;;;;;;;-0.46;84.80;101256.40;1724833;81;21315;-80
2020/12/02 09:20:18;;;;;;;43.60;19.57;;;;;;;-0.41;84.75;101255.67;1724717;81;21182;-80
2020/12/02 09:23:24;;;;;;;41.23;19.75;;;;;;;-0.37;84.58;101246.49;1723648;81;21820;-81
2020/12/02 09:26:33;;;;;;;43.50;22.70;;;;;;;-0.30;84.28;101241.16;1723267;81;21645;-80
2020/12/02 09:29:47;;;;;;;46.50;26.75;;;;;;;-0.27;83.99;101253.09;1718226;81;21766;-80
2020/12/02 09:32:53;;;;;;;38.40;19.60;;;;;;;-0.24;83.69;101246.67;1702693;82;21319;-81
2020/12/02 09:36:02;;;;;;;60.80;40.40;;;;;;;-0.17;83.75;101248.08;1683628;84;21783;-81
2020/12/02 09:39:10;;;;;;;83.58;61.55;;;;;;;-0.13;83.52;101245.62;1691027;83;22179;-81
2020/12/02 09:42:45;;;;;;;46.05;26.48;;;;;;;-0.16;83.55;101246.25;1677711;84;21216;-81
2020/12/02 09:46:18;;;;;;;108.27;88.10;;;;;;;-0.26;83.43;101245.89;1678662;83;21317;-81
2020/12/02 09:49:33;;;;;;;43.05;24.87;;;;;;;-0.32;83.58;101256.52;1668206;83;21224;-82
2020/12/02 09:52:54;;;;;;;53.63;37.35;;;;;;;-0.33;83.80;101253.89;1715649;81;21727;-81
2020/12/02 09:56:27;;;;;;;48.95;30.48;;;;;;;-0.28;83.72;101245.99;1726841;81;21276;-82
2020/12/02 09:59:39;;;;;;;46.65;28.95;;;;;;;-0.24;83.84;101248.49;1721033;81;21327;-81
2020/12/02 10:03:39;;;;;;;40.40;20.90;;;;;;;-0.22;83.84;101248.81;1732366;81;21842;-82
2020/12/02 10:07:06;;;;;;;38.15;20.02;;;;;;;-0.19;83.76;101247.28;1721624;81;21331;-77
2020/12/02 10:10:32;;;;;;;72.37;43.73;;;;;;;-0.17;83.50;101244.52;1698601;82;21376;-76
2020/12/02 10:14:12;;;;;;;46.90;24.45;;;;;;;-0.13;83.58;101248.31;1703321;82;21872;-79
2020/12/02 10:18:01;;;;;;;47.17;25.17;;;;;;;-0.11;83.63;101251.77;1671901;83;21362;-78
2020/12/02 10:21:45;;;;;;;47.65;29.25;;;;;;;-0.11;83.57;101248.21;1690208;83;21543;-79
2020/12/02 10:25:11;;;;;;;38.15;19.87;;;;;;;-0.18;83.23;101251.73;1716489;82;21355;-79
2020/12/02 10:28:22;;;;;;;37.20;17.75;;;;;;;-0.32;83.41;101245.77;1719911;82;21552;-78
2020/12/02 10:32:06;;;;;;;36.73;20.25;;;;;;;-0.28;83.79;101254.54;1710331;82;21383;-79
2020/12/02 10:35:12;;;;;;;48.10;24.85;;;;;;;-0.19;83.67;101259.38;1709514;82;21359;-78
2020/12/02 10:38:44;;;;;;;44.27;22.58;;;;;;;-0.11;83.13;101253.11;1679457;83;21622;-78
2020/12/02 10:42:05;;;;;;;38.92;21.90;;;;;;;-0.16;82.94;101252.50;1694979;83;21315;-79
2020/12/02 10:45:31;;;;;;;35.03;19.32;;;;;;;-0.16;82.85;101244.91;1712511;82;21251;-79
2020/12/02 10:49:05;;;;;;;;;;;;;;;;;;;;;
2020/12/02 10:52:07;;;;;;;43.13;20.97;;;;;;;-0.13;83.01;101236.69;1696277;83;21240;-79
2020/12/02 10:55:12;;;;;;;79.27;59.38;;;;;;;-0.14;83.02;101237.61;1689790;83;21209;-79
2020/12/02 10:58:28;;;;;;;36.93;20.75;;;;;;;-0.14;82.98;101234.92;1689580;82;21328;-78
2020/12/02 11:01:48;;;;;;;45.45;26.25;;;;;;;-0.22;83.30;101227.78;1720435;82;21335;-79
2020/12/02 11:05:18;;;;;;;41.33;24.50;;;;;;;-0.22;83.36;101240.75;1687380;83;21197;-80
2020/12/02 11:09:02;;;;;;;50.43;30.95;;;;;;;-0.20;83.18;101242.86;1687492;83;21351;-79
2020/12/02 11:12:35;;;;;;;50.28;31.82;;;;;;;-0.27;83.09;101247.72;1691068;83;21317;-78
2020/12/02 11:16:19;;;;;;;35.25;19.40;;;;;;;-0.22;83.33;101234.50;1689407;83;21355;-78
2020/12/02 11:19:50;;;;;;;40.03;21.17;;;;;;;-0.20;83.20;101227.20;1687005;83;21197;-79
2020/12/02 11:23:22;;;;;;;49.42;25.27;;;;;;;-0.29;83.21;101222.72;1687020;83;21375;-78
2020/12/02 11:26:41;;;;;;;78.20;53.42;;;;;;;-0.31;83.39;101207.16;1693369;82;21762;-80
2020/12/02 11:29:47;;;;;;;53.90;25.68;;;;;;;-0.39;83.72;101210.75;1706686;82;21278;-78
2020/12/02 11:33:25;;;;;;;42.13;22.22;;;;;;;-0.45;84.24;101222.32;1709217;82;21342;-79
2020/12/02 11:36:52;;;;;;;41.28;22.10;;;;;;;-0.47;84.55;101210.32;1712919;82;21338;-79
2020/12/02 11:40:08;;;;;;;57.78;32.78;;;;;;;-0.39;84.81;101197.78;1688867;83;21219;-78
2020/12/02 11:43:35;;;;;;;101.00;66.97;;;;;;;-0.38;84.64;101214.30;1704135;82;21331;-79
2020/12/02 11:46:42;;;;;;;43.17;20.92;;;;;;;-0.48;84.84;101207.22;1702903;82;21417;-79
2020/12/02 11:53:55;;;;;;;41.25;22.35;;;;;;;-0.43;85.17;101213.20;1843413;76;22193;-77
2020/12/02 11:57:05;;;;;;;41.42;26.27;;;;;;;-0.47;84.97;101233.17;1817189;77;21330;-78
2020/12/02 12:00:11;;;;;;;49.67;37.00;;;;;;;-0.47;84.81;101224.20;1818536;77;21198;-79
2020/12/02 12:03:48;;;;;;;30.73;16.47;;;;;;;-0.48;84.66;101230.06;1802953;77;21352;-77
2020/12/02 12:06:55;;;;;;;70.62;50.58;;;;;;;-0.47;84.64;101225.11;1820073;77;21627;-78
2020/12/02 12:10:13;;;;;;;29.27;18.77;;;;;;;-0.42;84.63;101231.09;1814906;77;21320;-78
2020/12/02 12:13:52;;;;;;;41.77;29.85;;;;;;;-0.40;84.51;101241.27;1779498;79;21930;-79
2020/12/02 12:17:16;;;;;;;56.80;39.85;;;;;;;-0.37;84.47;101239.77;1746785;80;21314;-78
2020/12/02 12:20:25;;;;;;;44.00;26.42;;;;;;;-0.33;84.49;101238.66;1765512;80;21834;-79
2020/12/02 12:24:07;;;;;;;37.93;23.40;;;;;;;-0.36;84.17;101231.23;1757317;80;21334;-79
2020/12/02 12:27:13;;;;;;;30.08;18.82;;;;;;;-0.40;84.19;101228.31;1752858;80;21390;-79
2020/12/02 12:30:44;;;;;;;32.88;19.73;;;;;;;-0.42;84.00;101223.03;1770407;79;21215;-80
2020/12/02 12:35:08;;;;;;;74.25;51.48;;;;;;;-0.41;84.04;101222.55;1747004;80;21193;-81
2020/12/02 12:38:40;;;;;;;47.70;37.28;;;;;;;-0.46;83.98;101224.14;1743124;81;21188;-79
2020/12/02 12:41:49;;;;;;;38.28;23.67;;;;;;;-0.56;84.20;101225.60;1738308;81;21381;-79
2020/12/02 12:44:55;;;;;;;35.63;26.80;;;;;;;-0.63;84.69;101229.55;1740247;81;21652;-79
2020/12/02 12:48:02;;;;;;;28.40;16.90;;;;;;;-0.61;85.09;101223.61;1741087;81;21274;-79
2020/12/02 12:51:08;;;;;;;39.03;22.22;;;;;;;-0.59;85.15;101224.41;1737618;81;21212;-80
2020/12/02 12:54:22;;;;;;;41.33;19.57;;;;;;;-0.58;85.03;101224.80;1702491;82;21370;-79
2020/12/02 12:57:30;;;;;;;40.73;27.52;;;;;;;-0.61;85.06;101226.30;1702323;83;21311;-80
2020/12/02 13:00:37;;;;;;;55.05;36.70;;;;;;;-0.62;85.35;101235.31;1697834;83;21359;-78
2020/12/02 13:03:46;;;;;;;110.20;88.75;;;;;;;-0.67;85.48;101238.25;1701264;83;22694;-79
2020/12/02 13:07:10;;;;;;;31.57;19.85;;;;;;;-0.69;85.54;101248.70;1701810;83;21318;-77
2020/12/02 13:10:30;;;;;;;73.87;56.98;;;;;;;-0.71;85.82;101246.55;1694786;83;21870;-78
2020/12/02 13:13:59;;;;;;;35.58;23.32;;;;;;;-0.69;86.12;101233.92;1696851;83;21736;-78
2020/12/02 13:17:39;;;;;;;67.67;52.05;;;;;;;-0.69;86.12;101233.92;1703593;83;21590;-77
2020/12/02 13:21:01;;;;;;;40.55;29.90;;;;;;;-0.66;86.31;101237.32;1676211;83;21311;-77
2020/12/02 13:24:48;;;;;;;33.38;19.98;;;;;;;-0.62;86.48;101229.46;1706028;83;22529;-78
2020/12/02 13:28:04;;;;;;;34.53;24.90;;;;;;;-0.57;86.33;101244.86;1701189;83;21306;-77
2020/12/02 13:31:35;;;;;;;33.48;16.48;;;;;;;-0.61;86.06;101229.87;1703172;83;21220;-78
2020/12/02 13:34:41;;;;;;;54.40;39.27;;;;;;;-0.59;86.17;101233.81;1700860;83;21315;-78
2020/12/02 13:37:46;;;;;;;61.75;47.00;;;;;;;-0.56;86.19;101233.19;1698364;83;22056;-79
2020/12/02 13:40:52;;;;;;;71.67;53.70;;;;;;;-0.55;86.04;101247.48;1701965;83;21256;-78
2020/12/02 13:44:00;;;;;;;98.75;82.45;;;;;;;-0.56;85.76;101258.72;1702777;83;22385;-79
2020/12/02 13:47:05;;;;;;;46.02;30.85;;;;;;;-0.58;85.69;101256.56;1701170;83;21510;-79
2020/12/02 13:50:14;;;;;;;36.17;24.02;;;;;;;-0.59;85.48;101248.59;1706037;83;21331;-79
2020/12/02 13:53:40;;;;;;;52.65;33.25;;;;;;;-0.61;85.46;101244.66;1670074;82;21889;-79
2020/12/02 13:56:52;;;;;;;29.40;17.30;;;;;;;-0.59;85.50;101259.34;1702717;83;21193;-78
2020/12/02 14:00:37;;;;;;;38.58;25.15;;;;;;;-0.57;85.46;101256.09;1695457;83;21451;-79
2020/12/02 14:04:05;;;;;;;47.90;21.77;;;;;;;-0.57;85.46;101258.78;1707142;83;21204;-78
2020/12/02 14:07:13;;;;;;;34.38;21.57;;;;;;;-0.55;85.32;101255.07;1700591;83;21193;-78
2020/12/02 14:10:18;;;;;;;63.02;45.17;;;;;;;-0.56;85.24;101252.48;1701183;83;21736;-78
2020/12/02 14:13:24;;;;;;;38.42;23.07;;;;;;;-0.55;85.29;101258.23;1700995;83;21205;-78
2020/12/02 14:16:30;;;;;;;37.83;20.90;;;;;;;-0.56;85.31;101266.78;1707400;83;21361;-78
2020/12/02 14:19:36;;;;;;;40.03;24.00;;;;;;;-0.58;85.34;101261.08;1704051;83;21311;-78
2020/12/02 14:22:44;;;;;;;62.10;48.10;;;;;;;-0.54;85.26;101264.00;1706602;83;21296;-78
2020/12/02 14:25:58;;;;;;;105.22;85.53;;;;;;;-0.51;84.93;101263.84;1688634;83;21254;-78
2020/12/02 14:29:05;;;;;;;54.23;42.43;;;;;;;-0.55;84.55;101265.82;1702451;83;21323;-78
2020/12/02 14:32:10;;;;;;;62.83;45.28;;;;;;;-0.60;84.52;101271.92;1705257;83;21356;-78
2020/12/02 14:35:18;;;;;;;54.42;38.60;;;;;;;-0.60;84.54;101269.71;1698823;83;21360;-78
2020/12/02 14:38:26;;;;;;;48.20;34.00;;;;;;;-0.65;84.47;101270.44;1700160;83;21323;-78
2020/12/02 14:41:32;;;;;;;33.60;19.02;;;;;;;-0.69;84.83;101275.57;1698349;83;21407;-78
2020/12/02 14:44:40;;;;;;;44.38;27.98;;;;;;;-0.69;85.14;101275.57;1722507;82;21213;-76
2020/12/02 14:47:46;;;;;;;54.65;38.50;;;;;;;-0.63;85.19;101268.52;1675010;84;21312;-78